Time;durP1;ratioP1;P1;durP2;ratioP2;P2;SDS_P1;SDS_P2;PMS_P1;PMS_P2;Temp;Humidity;BMP_temperature;BMP_pressure;BME280_temperature;BME280_humidity;BME280_pressure;Samples;Min_cycle;Max_cycle;Signal;HPM_P1;HPM_P2
2022/08/05 00:00:28;;;;;;;;;;;;;;;18.43;100.00;-25586.00;5094978;28;20268;-80
2022/08/05 00:02:54;;;;;;;;;;;;;;;18.40;100.00;-25585.00;5095186;28;20352;-79
2022/08/05 00:05:19;;;;;;;;;;;;;;;18.39;100.00;-25584.72;5086734;28;19921;-79
2022/08/05 00:07:44;;;;;;;;;;;;;;;18.31;100.00;-25582.53;5087246;28;20003;-80
2022/08/05 00:10:12;;;;;;;;;;;;;;;18.36;100.00;-25583.97;5078011;28;20004;-78
2022/08/05 00:12:43;;;;;;;;;;;;;;;18.37;100.00;-25584.28;5095076;28;20360;-81
2022/08/05 00:15:09;;;;;;;;;;;;;;;18.28;100.00;-25581.66;5085758;28;20410;-81
2022/08/05 00:17:34;;;;;;;;;;;;;;;18.24;100.00;-25580.50;5073929;28;19917;-80
2022/08/05 00:19:59;;;;;;;;;;;;;;;18.25;100.00;-25580.81;5073361;28;19913;-80
2022/08/05 00:22:25;;;;;;;;;;;;;;;18.26;100.00;-25581.09;5074068;28;19970;-80
2022/08/05 00:24:50;;;;;;;;;;;;;;;18.29;100.00;-25582.09;5073850;28;19916;-81
2022/08/05 00:27:15;;;;;;;;;;;;;;;18.34;100.00;-25583.25;5073605;28;19912;-81
2022/08/05 00:29:40;;;;;;;;;;;;;;;18.30;100.00;-25582.25;5071980;28;19944;-80
2022/08/05 00:32:07;;;;;;;;;;;;;;;18.31;100.00;-25582.53;5072869;28;19917;-80
2022/08/05 00:34:32;;;;;;;;;;;;;;;18.32;100.00;-25582.69;5073581;28;19925;-77
2022/08/05 00:36:58;;;;;;;;;;;;;;;18.29;100.00;-25581.97;5073480;28;19924;-79
2022/08/05 00:39:23;;;;;;;;;;;;;;;18.22;100.00;-25580.06;5073911;28;20380;-77
2022/08/05 00:41:48;;;;;;;;;;;;;;;18.24;100.00;-25580.66;5078360;28;20546;-77
2022/08/05 00:44:15;;;;;;;;;;;;;;;18.22;100.00;-25579.94;5094958;28;19925;-76
2022/08/05 00:46:40;;;;;;;;;;;;;;;18.14;100.00;-25577.75;5097568;28;19916;-78
2022/08/05 00:49:05;;;;;;;;;;;;;;;18.15;100.00;-25577.91;5098111;28;20019;-79
2022/08/05 00:51:31;;;;;;;;;;;;;;;18.16;100.00;-25578.19;5092879;28;19916;-78
2022/08/05 00:53:56;;;;;;;;;;;;;;;18.08;100.00;-25576.03;5092800;28;19916;-77
2022/08/05 00:56:21;;;;;;;;;;;;;;;18.04;100.00;-25574.88;5078461;28;19924;-76
2022/08/05 00:58:47;;;;;;;;;;;;;;;18.04;100.00;-25575.00;5098434;28;20003;-77
2022/08/05 01:01:14;;;;;;;;;;;;;;;18.01;100.00;-25574.00;5097963;28;19960;-77
2022/08/05 01:03:39;;;;;;;;;;;;;;;17.90;100.00;-25571.09;5093808;28;19916;-77
2022/08/05 01:06:05;;;;;;;;;;;;;;;17.94;100.00;-25572.25;5092394;28;19916;-77
2022/08/05 01:08:30;;;;;;;;;;;;;;;17.84;100.00;-25569.38;5092671;28;19916;-77
2022/08/05 01:10:58;;;;;;;;;;;;;;;17.85;100.00;-25569.66;5092086;28;19916;-76
2022/08/05 01:13:38;;;;;;;;;;;;;;;17.82;100.00;-25568.78;5093196;28;19927;-77
2022/08/05 01:16:06;;;;;;;;;;;;;;;17.78;100.00;-25567.63;5093276;28;20000;-77
2022/08/05 01:18:37;;;;;;;;;;;;;;;17.75;100.00;-25566.75;5092903;28;19916;-77
2022/08/05 01:21:06;;;;;;;;;;;;;;;17.70;100.00;-25565.31;5092533;28;19920;-77
2022/08/05 01:23:36;;;;;;;;;;;;;;;17.81;100.00;-25568.34;5093285;28;19927;-77
2022/08/05 01:26:07;;;;;;;;;;;;;;;17.80;100.00;-25568.06;5092484;28;19923;-77
2022/08/05 01:28:41;;;;;;;;;;;;;;;17.75;100.00;-25566.91;5093355;28;19939;-77
2022/08/05 01:31:09;;;;;;;;;;;;;;;17.72;100.00;-25565.88;5092125;28;19916;-77
2022/08/05 01:33:38;;;;;;;;;;;;;;;17.70;100.00;-25565.31;5092596;28;19920;-77
2022/08/05 01:36:08;;;;;;;;;;;;;;;17.72;100.00;-25566.03;5091981;28;19924;-77
2022/08/05 01:38:34;;;;;;;;;;;;;;;17.77;100.00;-25567.34;5091377;28;19954;-78
2022/08/05 01:41:01;;;;;;;;;;;;;;;17.76;100.00;-25567.03;5092286;28;19916;-79
2022/08/05 01:43:26;;;;;;;;;;;;;;;17.70;100.00;-25565.44;5097796;28;20431;-78
2022/08/05 01:45:52;;;;;;;;;;;;;;;17.71;100.00;-25565.75;5087143;28;19960;-79
2022/08/05 01:48:19;;;;;;;;;;;;;;;17.69;100.00;-25565.16;5076490;28;20011;-80
2022/08/05 01:50:45;;;;;;;;;;;;;;;17.64;100.00;-25563.56;5080826;28;19923;-79
2022/08/05 01:53:12;;;;;;;;;;;;;;;17.69;100.00;-25565.00;5079081;28;19965;-80
2022/08/05 01:55:38;;;;;;;;;;;;;;;17.62;100.00;-25563.00;5089213;28;19994;-80
2022/08/05 01:58:04;;;;;;;;;;;;;;;17.59;100.00;-25562.41;5098863;28;19920;-80
2022/08/05 02:00:32;;;;;;;;;;;;;;;17.54;100.00;-25560.81;5093081;28;19916;-80
2022/08/05 02:03:06;;;;;;;;;;;;;;;17.53;100.00;-25560.53;5091767;28;19916;-78
2022/08/05 02:05:35;;;;;;;;;;;;;;;17.50;100.00;-25559.81;5085449;28;19924;-79
2022/08/05 02:08:00;;;;;;;;;;;;;;;17.48;100.00;-25559.22;5071895;28;20426;-75
2022/08/05 02:10:28;;;;;;;;;;;;;;;17.44;100.00;-25558.06;5072401;28;19916;-80
2022/08/05 02:13:14;;;;;;;;;;;;;;;17.43;100.00;-25557.78;5071549;28;20438;-77
2022/08/05 02:16:00;;;;;;;;;;;;;;;17.40;100.00;-25556.91;5071842;28;19974;-76
2022/08/05 02:18:30;;;;;;;;;;;;;;;17.36;100.00;-25555.88;5071728;28;19916;-81
2022/08/05 02:21:13;;;;;;;;;;;;;;;17.33;100.00;-25554.88;5072350;28;20394;-80
2022/08/05 02:23:41;;;;;;;;;;;;;;;17.32;100.00;-25554.72;5106166;28;19962;-75
2022/08/05 02:26:08;;;;;;;;;;;;;;;17.23;100.00;-25552.13;5083489;28;20258;-76
2022/08/05 02:28:35;;;;;;;;;;;;;;;17.23;100.00;-25552.25;5091284;28;19921;-79
2022/08/05 02:31:08;;;;;;;;;;;;;;;17.18;100.00;-25550.81;5092492;28;20348;-77
2022/08/05 02:33:36;;;;;;;;;;;;;;;17.14;100.00;-25549.50;5091973;28;20011;-77
2022/08/05 02:36:02;;;;;;;;;;;;;;;17.12;100.00;-25548.94;5076590;28;20433;-78
2022/08/05 02:38:28;;;;;;;;;;;;;;;17.10;100.00;-25548.34;5073605;28;19912;-79
2022/08/05 02:40:54;;;;;;;;;;;;;;;17.08;100.00;-25547.91;5071510;28;19928;-78
2022/08/05 02:43:23;;;;;;;;;;;;;;;17.09;100.00;-25548.22;5071996;28;19966;-76
2022/08/05 02:45:49;;;;;;;;;;;;;;;17.08;100.00;-25547.91;5083893;28;20370;-79
2022/08/05 02:48:15;;;;;;;;;;;;;;;17.12;100.00;-25549.06;5092083;28;19920;-78
2022/08/05 02:50:41;;;;;;;;;;;;;;;17.07;100.00;-25547.63;5096268;28;19963;-79
2022/08/05 02:53:19;;;;;;;;;;;;;;;17.09;100.00;-25548.06;5096329;28;19938;-78
2022/08/05 02:55:48;;;;;;;;;;;;;;;17.05;100.00;-25547.03;5086281;28;19913;-78
2022/08/05 02:58:15;;;;;;;;;;;;;;;17.02;100.00;-25546.19;5076154;28;20410;-78
2022/08/05 03:00:42;;;;;;;;;;;;;;;17.03;100.00;-25546.59;5075840;28;19920;-78
2022/08/05 03:03:09;;;;;;;;;;;;;;;17.01;100.00;-25545.88;5075689;28;19916;-79
2022/08/05 03:05:34;;;;;;;;;;;;;;;16.98;100.00;-25545.16;5076580;28;19927;-78
2022/08/05 03:07:59;;;;;;;;;;;;;;;16.97;100.00;-25544.88;5075441;28;19912;-80
2022/08/05 03:10:25;;;;;;;;;;;;;;;16.99;100.00;-25545.31;5075743;28;19975;-78
2022/08/05 03:12:52;;;;;;;;;;;;;;;16.95;100.00;-25544.16;5076181;28;19917;-79
2022/08/05 03:15:18;;;;;;;;;;;;;;;16.98;100.00;-25545.00;5073054;28;19916;-78
2022/08/05 03:17:44;;;;;;;;;;;;;;;16.94;100.00;-25544.00;5056249;28;19946;-79
2022/08/05 03:20:09;;;;;;;;;;;;;;;16.89;100.00;-25542.41;5055536;28;19920;-78
2022/08/05 03:22:37;;;;;;;;;;;;;;;16.90;100.00;-25542.69;5054768;28;19916;-79
2022/08/05 03:25:02;;;;;;;;;;;;;;;16.87;100.00;-25541.97;5062396;28;19919;-77
2022/08/05 03:27:28;;;;;;;;;;;;;;;16.85;100.00;-25541.38;5094321;28;20444;-79
2022/08/05 03:29:53;;;;;;;;;;;;;;;16.80;100.00;-25539.94;5093825;28;19965;-77
2022/08/05 03:32:19;;;;;;;;;;;;;;;16.79;100.00;-25539.63;5094664;28;19916;-76
2022/08/05 03:34:45;;;;;;;;;;;;;;;16.77;100.00;-25539.22;5088395;28;19924;-75
2022/08/05 03:37:10;;;;;;;;;;;;;;;16.73;100.00;-25538.03;5074734;28;19917;-79
2022/08/05 03:39:36;;;;;;;;;;;;;;;16.71;100.00;-25537.47;5075181;28;20382;-78
2022/08/05 03:42:01;;;;;;;;;;;;;;;16.70;100.00;-25537.16;5074896;28;19916;-79
2022/08/05 03:44:27;;;;;;;;;;;;;;;16.69;100.00;-25537.03;5077197;28;19958;-79
2022/08/05 03:46:53;;;;;;;;;;;;;;;16.69;100.00;-25536.88;5095603;28;20011;-78
2022/08/05 03:49:18;;;;;;;;;;;;;;;16.70;100.00;-25537.16;5094946;28;19959;-79
2022/08/05 03:51:46;;;;;;;;;;;;;;;16.71;100.00;-25537.47;5094460;28;20421;-77
2022/08/05 03:54:16;;;;;;;;;;;;;;;16.72;100.00;-25537.75;5093531;28;19916;-76
2022/08/05 03:56:43;;;;;;;;;;;;;;;16.70;100.00;-25537.16;5054236;28;19924;-74
2022/08/05 03:59:12;;;;;;;;;;;;;;;16.68;100.00;-25536.59;5053423;28;20011;-75
2022/08/05 04:01:40;;;;;;;;;;;;;;;16.65;100.00;-25535.72;5053306;28;20357;-74
2022/08/05 04:04:07;;;;;;;;;;;;;;;16.59;100.00;-25533.97;5053240;28;19916;-75
2022/08/05 04:06:33;;;;;;;;;;;;;;;16.52;100.00;-25532.25;5092104;28;19920;-76
2022/08/05 04:08:59;;;;;;;;;;;;;;;16.52;100.00;-25532.09;5093863;28;19924;-74
2022/08/05 04:11:24;;;;;;;;;;;;;;;16.50;100.00;-25531.53;5093512;28;19923;-75
2022/08/05 04:13:50;;;;;;;;;;;;;;;16.42;100.00;-25529.19;5094076;28;19923;-75
2022/08/05 04:16:15;;;;;;;;;;;;;;;16.39;100.00;-25528.31;5077585;28;19920;-77
2022/08/05 04:18:43;;;;;;;;;;;;;;;16.35;100.00;-25527.31;5073290;28;19927;-77
2022/08/05 04:21:08;;;;;;;;;;;;;;;16.28;100.00;-25525.28;5073394;28;19917;-80
2022/08/05 04:23:35;;;;;;;;;;;;;;;16.27;100.00;-25524.97;5074767;28;19916;-80
2022/08/05 04:26:01;;;;;;;;;;;;;;;16.21;100.00;-25523.38;5075187;28;20276;-80
2022/08/05 04:28:26;;;;;;;;;;;;;;;16.19;100.00;-25522.66;5074538;28;19925;-80
2022/08/05 04:30:52;;;;;;;;;;;;;;;16.21;100.00;-25523.38;5074736;28;19921;-80
2022/08/05 04:33:17;;;;;;;;;;;;;;;16.20;100.00;-25522.94;5092043;28;19982;-79
2022/08/05 04:35:43;;;;;;;;;;;;;;;16.14;100.00;-25521.34;5080768;28;20422;-79
2022/08/05 04:38:08;;;;;;;;;;;;;;;16.04;100.00;-25518.59;5072656;28;19916;-79
2022/08/05 04:40:34;;;;;;;;;;;;;;;16.05;100.00;-25518.88;5073965;28;19916;-80
2022/08/05 04:43:01;;;;;;;;;;;;;;;16.00;100.00;-25517.44;5074791;28;19917;-82
2022/08/05 04:45:27;;;;;;;;;;;;;;;16.03;100.00;-25518.28;5081922;28;19927;-80
2022/08/05 04:47:52;;;;;;;;;;;;;;;16.04;100.00;-25518.44;5094667;28;20011;-79
2022/08/05 04:50:18;;;;;;;;;;;;;;;15.97;100.00;-25516.69;5094382;28;20015;-81
2022/08/05 04:52:43;;;;;;;;;;;;;;;15.95;100.00;-25515.97;5094282;28;20381;-81
2022/08/05 04:55:09;;;;;;;;;;;;;;;15.95;100.00;-25515.97;5091733;28;20356;-81
2022/08/05 04:57:34;;;;;;;;;;;;;;;15.97;100.00;-25516.56;5075819;28;19966;-76
2022/08/05 04:59:59;;;;;;;;;;;;;;;16.00;100.00;-25517.28;5088597;28;19939;-76
2022/08/05 05:02:25;;;;;;;;;;;;;;;16.05;100.00;-25518.88;5078140;28;19920;-76
2022/08/05 05:04:51;;;;;;;;;;;;;;;16.14;100.00;-25521.34;5090760;28;20364;-77
2022/08/05 05:07:17;;;;;;;;;;;;;;;16.58;100.00;-25533.69;5066396;28;19925;-77
2022/08/05 05:09:45;;;;;;;;;;;;;;;16.83;100.00;-25540.94;5071883;28;20579;-76
2022/08/05 05:12:11;;;;;;;;;;;;;;;16.71;100.00;-25537.47;5071848;28;19917;-76
2022/08/05 05:14:37;;;;;;;;;;;;;;;16.87;100.00;-25541.97;5072247;28;19921;-77
2022/08/05 05:17:02;;;;;;;;;;;;;;;17.21;100.00;-25551.53;5071103;28;19958;-76
2022/08/05 05:19:28;;;;;;;;;;;;;;;17.69;100.00;-25565.16;5071937;28;19959;-77
2022/08/05 05:21:53;;;;;;;;;;;;;;;18.03;100.00;-25574.72;5071595;28;20032;-78
2022/08/05 05:24:20;;;;;;;;;;;;;;;18.56;100.00;-25589.63;5071451;28;20353;-76
2022/08/05 05:26:47;;;;;;;;;;;;;;;18.60;100.00;-25590.78;5071911;28;19939;-76
2022/08/05 05:29:15;;;;;;;;;;;;;;;18.17;100.00;-19626.47;5071561;28;19916;-79
2022/08/05 05:31:40;;;;;;;;;;;;;;;18.11;100.00;-18302.13;5071603;28;19917;-76
2022/08/05 05:34:06;;;;;;;;;;;;;;;18.28;100.00;-16649.53;5070490;28;20439;-76
2022/08/05 05:36:31;;;;;;;;;;;;;;;18.44;100.00;-14332.63;5071169;28;19939;-75
2022/08/05 05:38:58;;;;;;;;;;;;;;;18.52;100.00;-13338.91;5075115;28;19917;-77
2022/08/05 05:41:23;;;;;;;;;;;;;;;18.50;100.00;-10685.50;5072128;28;19920;-78
2022/08/05 05:43:48;;;;;;;;;;;;;;;18.47;100.00;-9026.25;5071925;28;19990;-76
2022/08/05 05:46:14;;;;;;;;;;;;;;;18.45;100.00;-7698.44;5070482;28;20007;-76
2022/08/05 05:48:40;;;;;;;;;;;;;;;18.59;100.00;-6037.72;5070652;28;19924;-76
2022/08/05 05:51:07;;;;;;;;;;;;;;;18.44;100.00;-5373.78;5070807;28;19967;-77
2022/08/05 05:53:32;;;;;;;;;;;;;;;18.74;100.00;-5040.34;5111063;28;19916;-76
2022/08/05 05:55:57;;;;;;;;;;;;;;;18.64;100.00;-1715.97;5113315;28;19917;-76
2022/08/05 05:58:23;;;;;;;;;;;;;;;18.56;100.00;-2049.31;5075778;28;19991;-77
2022/08/05 06:00:48;;;;;;;;;;;;;;;18.78;100.00;-1049.28;5073214;28;19916;-79
2022/08/05 06:03:14;;;;;;;;;;;;;;;19.44;100.00;956.69;5070672;28;20031;-78
2022/08/05 06:05:40;;;;;;;;;;;;;;;20.31;100.00;15680.25;5058960;28;19971;-79
2022/08/05 06:08:06;;;;;;;;;;;;;;;19.98;100.00;29420.19;5056187;28;19923;-79
2022/08/05 06:10:32;;;;;;;;;;;;;;;19.82;100.00;33780.19;5053837;28;19924;-79
2022/08/05 06:12:58;;;;;;;;;;;;;;;19.70;100.00;36799.31;5096953;28;19956;-79
2022/08/05 06:15:23;;;;;;;;;;;;;;;19.76;100.00;31086.97;5093722;28;19938;-78
2022/08/05 06:17:49;;;;;;;;;;;;;;;19.73;100.00;36128.53;5094055;28;20027;-80
2022/08/05 06:20:14;;;;;;;;;;;;;;;19.49;100.00;35775.50;5079635;28;19924;-79
2022/08/05 06:22:41;;;;;;;;;;;;;;;19.79;100.00;32769.16;5092604;28;19920;-79
2022/08/05 06:25:09;;;;;;;;;;;;;;;20.01;100.00;39852.09;5092325;28;19912;-79
2022/08/05 06:27:35;;;;;;;;;;;;;;;20.00;100.00;49634.22;5074395;28;19962;-80
2022/08/05 06:30:00;;;;;;;;;;;;;;;19.74;100.00;50286.13;5093028;28;19966;-77
2022/08/05 06:32:26;;;;;;;;;;;;;;;19.68;100.00;44544.44;5087785;28;19920;-79
2022/08/05 06:34:51;;;;;;;;;;;;;;;19.83;100.00;48605.50;5082050;28;19927;-79
2022/08/05 06:37:17;;;;;;;;;;;;;;;19.94;100.00;60450.19;5090754;28;20300;-80
2022/08/05 06:39:42;;;;;;;;;;;;;;;19.93;100.00;60787.72;5089986;28;20284;-81
2022/08/05 06:42:07;;;;;;;;;;;;;;;20.31;100.00;61506.84;5090904;28;20050;-81
2022/08/05 06:44:33;;;;;;;;;;;;;;;20.34;100.00;83943.22;5090742;28;19920;-81
2022/08/05 06:46:59;;;;;;;;;;;;;;;20.19;100.00;115050.72;5091006;28;19955;-80
2022/08/05 06:49:25;;;;;;;;;;;;;;;20.10;100.00;133960.03;5090015;28;19916;-80
2022/08/05 06:51:50;;;;;;;;;;;;;;;20.33;100.00;147835.28;5091512;28;19916;-81
2022/08/05 06:54:16;;;;;;;;;;;;;;;20.57;100.00;147894.19;5089141;28;20296;-79
2022/08/05 06:56:42;;;;;;;;;;;;;;;20.36;100.00;147842.97;5090656;28;19970;-78
2022/08/05 06:59:07;;;;;;;;;;;;;;;20.33;100.00;147834.00;5089975;28;19946;-81
2022/08/05 07:01:33;;;;;;;;;;;;;;;20.13;100.00;147784.06;5089413;28;20347;-79
2022/08/05 07:04:00;;;;;;;;;;;;;;;20.31;100.00;147830.16;5090240;28;20019;-79
2022/08/05 07:06:25;;;;;;;;;;;;;;;20.20;100.00;147803.25;5090933;28;19916;-80
2022/08/05 07:08:50;;;;;;;;;;;;;;;20.08;100.00;147772.53;5090129;28;19958;-79
2022/08/05 07:11:15;;;;;;;;;;;;;;;20.21;100.00;147804.53;5090126;28;19952;-80
2022/08/05 07:19:10;;;;;;;;;;;;;;;21.85;100.00;148213.50;5091295;28;19925;-81
2022/08/05 07:21:35;;;;;;;;;;;;;;;22.69;100.00;148423.88;5089921;28;19920;-80
2022/08/05 07:24:00;;;;;;;;;;;;;;;23.65;100.00;148662.69;5089806;28;19969;-78
2022/08/05 07:26:26;;;;;;;;;;;;;;;24.10;100.00;148774.41;5090317;28;19912;-78
2022/08/05 07:28:51;;;;;;;;;;;;;;;24.27;100.00;148816.78;5089327;28;19923;-80
2022/08/05 07:31:16;;;;;;;;;;;;;;;24.65;100.00;148911.91;5089624;28;19923;-79
2022/08/05 07:33:42;;;;;;;;;;;;;;;25.28;100.00;149069.97;5089817;28;19920;-80
2022/08/05 07:36:07;;;;;;;;;;;;;;;25.56;100.00;149139.44;5091172;28;19928;-77
2022/08/05 07:38:33;;;;;;;;;;;;;;;25.01;100.00;149003.13;5092806;28;20384;-78
2022/08/05 07:40:58;;;;;;;;;;;;;;;25.23;100.00;149058.41;5093352;28;19971;-76
2022/08/05 07:43:24;;;;;;;;;;;;;;;24.38;100.00;148846.34;5075758;28;20364;-79
2022/08/05 07:45:49;;;;;;;;;;;;;;;23.73;100.00;148681.94;5092917;28;19923;-79
2022/08/05 07:48:14;;;;;;;;;;;;;;;22.87;100.00;148468.81;5093567;28;19951;-79
2022/08/05 07:50:39;;;;;;;;;;;;;;;22.69;100.00;148422.63;5092878;28;19923;-79
2022/08/05 07:53:05;;;;;;;;;;;;;;;22.44;100.00;148361.03;5093629;28;20391;-77
2022/08/05 07:55:30;;;;;;;;;;;;;;;22.25;100.00;148313.53;5093140;28;19989;-77
2022/08/05 07:57:56;;;;;;;;;;;;;;;22.17;100.00;148294.28;5091408;28;19912;-79
2022/08/05 08:00:21;;;;;;;;;;;;;;;21.94;100.00;148235.25;5092936;28;20387;-78
2022/08/05 08:02:47;;;;;;;;;;;;;;;21.93;100.00;148234.00;5092772;28;19943;-76
2022/08/05 08:05:12;;;;;;;;;;;;;;;22.17;100.00;148294.28;5091762;28;20224;-76
2022/08/05 08:07:38;;;;;;;;;;;;;;;22.18;100.00;148296.81;5092876;28;19920;-78
2022/08/05 08:10:03;;;;;;;;;;;;;;;22.32;100.00;148330.25;5092802;28;19920;-78
2022/08/05 08:12:29;;;;;;;;;;;;;;;22.41;100.00;148353.34;5091470;28;20007;-77
2022/08/05 08:14:54;;;;;;;;;;;;;;;22.30;100.00;148325.06;5093603;28;20360;-78
2022/08/05 08:17:19;;;;;;;;;;;;;;;21.78;100.00;148195.50;5092434;28;19916;-76
2022/08/05 08:19:45;;;;;;;;;;;;;;;21.62;100.00;148155.78;5091472;28;19955;-77
2022/08/05 08:22:10;;;;;;;;;;;;;;;21.66;100.00;148167.31;5091979;28;19934;-75
2022/08/05 08:24:36;;;;;;;;;;;;;;;21.80;100.00;148201.94;5091770;28;19920;-77
2022/08/05 08:27:02;;;;;;;;;;;;;;;21.92;100.00;148230.16;5091919;28;19942;-77
2022/08/05 08:29:28;;;;;;;;;;;;;;;21.56;100.00;148140.41;5092540;28;19959;-77
2022/08/05 08:31:53;;;;;;;;;;;;;;;21.54;100.00;148135.28;5092088;28;19955;-75
2022/08/05 08:34:19;;;;;;;;;;;;;;;21.41;100.00;148104.47;5092012;28;20352;-78
2022/08/05 08:36:44;;;;;;;;;;;;;;;21.65;100.00;148163.47;5092309;28;19923;-79
2022/08/05 08:39:10;;;;;;;;;;;;;;;21.68;100.00;148172.44;5091403;28;19916;-76
2022/08/05 08:41:36;;;;;;;;;;;;;;;21.97;100.00;148244.28;5091840;28;20380;-77
2022/08/05 08:44:02;;;;;;;;;;;;;;;21.92;100.00;148230.16;5091702;28;19923;-77
2022/08/05 08:46:30;;;;;;;;;;;;;;;21.58;100.00;148146.81;5091216;28;19919;-78
2022/08/05 08:48:56;;;;;;;;;;;;;;;21.40;100.00;148101.88;5091296;28;20019;-77
2022/08/05 08:51:22;;;;;;;;;;;;;;;21.42;100.00;148105.72;5091923;28;19970;-77
2022/08/05 08:53:48;;;;;;;;;;;;;;;21.21;100.00;148053.16;5090884;28;19923;-77
2022/08/05 08:56:14;;;;;;;;;;;;;;;20.92;100.00;147981.41;5091663;28;19920;-77
2022/08/05 08:58:39;;;;;;;;;;;;;;;20.80;100.00;147953.22;5091996;28;19923;-79
2022/08/05 09:01:06;;;;;;;;;;;;;;;20.69;100.00;147923.72;5090891;28;19916;-77
2022/08/05 09:03:31;;;;;;;;;;;;;;;20.67;100.00;147919.88;5091862;28;19926;-76
2022/08/05 09:05:57;;;;;;;;;;;;;;;20.52;100.00;147881.41;5091784;28;19916;-78
2022/08/05 09:08:22;;;;;;;;;;;;;;;20.45;100.00;147866.03;5091286;28;19920;-78
2022/08/05 09:10:50;;;;;;;;;;;;;;;20.33;100.00;147835.28;5092108;28;19927;-79
2022/08/05 09:13:15;;;;;;;;;;;;;;;19.97;100.00;147745.63;5091959;28;19920;-79
2022/08/05 09:15:40;;;;;;;;;;;;;;;19.91;100.00;147730.25;5092316;28;19961;-80
2022/08/05 09:18:07;;;;;;;;;;;;;;;19.80;100.00;147702.09;5092170;28;20364;-80
2022/08/05 09:20:32;;;;;;;;;;;;;;;19.73;100.00;147685.38;5091887;28;19922;-79
2022/08/05 09:23:01;;;;;;;;;;;;;;;19.84;100.00;147713.63;5090493;28;19916;-78
2022/08/05 09:25:28;;;;;;;;;;;;;;;19.71;100.00;147681.53;5091517;28;19920;-78
2022/08/05 09:27:54;;;;;;;;;;;;;;;19.91;100.00;147730.25;5092399;28;19920;-77
2022/08/05 09:30:19;;;;;;;;;;;;;;;20.08;100.00;147772.53;5091190;28;19920;-80
2022/08/05 09:32:44;;;;;;;;;;;;;;;20.00;100.00;147753.31;5091764;28;20418;-80
2022/08/05 09:35:11;;;;;;;;;;;;;;;20.08;100.00;147773.78;5090994;28;19916;-80
2022/08/05 09:37:37;;;;;;;;;;;;;;;19.98;100.00;147748.19;5091743;28;20024;-79
2022/08/05 09:40:02;;;;;;;;;;;;;;;20.22;100.00;147808.38;5092182;28;19966;-80
2022/08/05 09:42:37;;;;;;;;;;;;;;;20.47;100.00;147869.88;5091813;28;20245;-82
2022/08/05 09:45:05;;;;;;;;;;;;;;;20.41;100.00;147854.50;5091892;28;20228;-80
2022/08/05 09:47:30;;;;;;;;;;;;;;;20.65;100.00;147913.47;5092428;28;19927;-78
2022/08/05 09:49:56;;;;;;;;;;;;;;;20.49;100.00;147874.97;5090160;28;19920;-80
2022/08/05 09:52:23;;;;;;;;;;;;;;;20.39;100.00;147850.66;5090771;28;19916;-78
2022/08/05 09:54:56;;;;;;;;;;;;;;;20.65;100.00;147914.78;5090962;28;20387;-78
2022/08/05 09:57:31;;;;;;;;;;;;;;;20.61;100.00;147905.72;5089936;28;20372;-78
2022/08/05 10:00:02;;;;;;;;;;;;;;;20.49;100.00;147873.72;5090157;28;19916;-78
2022/08/05 10:02:32;;;;;;;;;;;;;;;20.55;100.00;147890.34;5090811;28;19916;-77
2022/08/05 10:05:14;;;;;;;;;;;;;;;20.58;100.00;147898.03;5089711;28;19916;-78
2022/08/05 10:07:46;;;;;;;;;;;;;;;20.62;100.00;147907.03;5091057;28;19923;-78
2022/08/05 10:10:11;;;;;;;;;;;;;;;20.74;100.00;147936.53;5089501;28;19916;-78
2022/08/05 10:12:44;;;;;;;;;;;;;;;20.81;100.00;147954.50;5090283;28;20394;-79
2022/08/05 10:15:18;;;;;;;;;;;;;;;20.85;100.00;147964.75;5090508;28;19954;-79
2022/08/05 10:18:01;;;;;;;;;;;;;;;20.75;100.00;147940.38;5090246;28;20384;-78
2022/08/05 10:20:26;;;;;;;;;;;;;;;20.58;100.00;147896.78;5090778;28;19918;-77
2022/08/05 10:22:51;;;;;;;;;;;;;;;20.68;100.00;147922.47;5091049;28;19916;-80
2022/08/05 10:25:17;;;;;;;;;;;;;;;20.87;100.00;147968.59;5089679;28;19951;-81
2022/08/05 10:27:43;;;;;;;;;;;;;;;20.82;100.00;147957.06;5090985;28;20023;-78
2022/08/05 10:30:08;;;;;;;;;;;;;;;21.02;100.00;148007.06;5090573;28;19916;-81
2022/08/05 10:32:34;;;;;;;;;;;;;;;20.96;100.00;147991.66;5089233;28;19928;-79
2022/08/05 10:34:59;;;;;;;;;;;;;;;20.97;100.00;147994.19;5091558;28;19920;-79
2022/08/05 10:37:28;;;;;;;;;;;;;;;20.69;100.00;147923.72;5090322;28;20024;-79
2022/08/05 10:39:55;;;;;;;;;;;;;;;20.83;100.00;147959.59;5089443;28;19920;-78
2022/08/05 10:42:22;;;;;;;;;;;;;;;20.59;100.00;147900.63;5090507;28;19916;-77
2022/08/05 10:44:48;;;;;;;;;;;;;;;20.34;100.00;147837.84;5090952;28;20221;-79
2022/08/05 10:47:15;;;;;;;;;;;;;;;20.56;100.00;147892.94;5089609;28;20195;-78
2022/08/05 10:49:59;;;;;;;;;;;;;;;20.55;100.00;147890.34;5090813;28;19916;-79
2022/08/05 10:52:42;;;;;;;;;;;;;;;20.55;100.00;147889.09;5092131;28;19961;-79
2022/08/05 10:55:09;;;;;;;;;;;;;;;20.71;100.00;147930.16;5092730;28;19920;-81
2022/08/05 10:57:34;;;;;;;;;;;;;;;20.60;100.00;147901.88;5091368;28;19934;-78
2022/08/05 11:00:07;;;;;;;;;;;;;;;20.73;100.00;147934.00;5090922;28;20007;-77
2022/08/05 11:02:32;;;;;;;;;;;;;;;20.68;100.00;147922.47;5091722;28;19923;-76
2022/08/05 11:04:58;;;;;;;;;;;;;;;20.97;100.00;147995.53;5093245;28;19916;-79
2022/08/05 11:07:23;;;;;;;;;;;;;;;21.15;100.00;148040.34;5094028;28;19920;-78
2022/08/05 11:09:50;;;;;;;;;;;;;;;21.18;100.00;148046.78;5095237;28;19920;-77
2022/08/05 11:12:30;;;;;;;;;;;;;;;21.59;100.00;148149.34;5095641;28;19931;-80
2022/08/05 11:15:04;;;;;;;;;;;;;;;21.69;100.00;148175.00;5098017;28;19916;-78
2022/08/05 11:17:32;;;;;;;;;;;;;;;21.80;100.00;148200.69;5098908;28;19916;-77
2022/08/05 11:19:58;;;;;;;;;;;;;;;21.86;100.00;148216.03;5098928;28;19916;-78
2022/08/05 11:22:37;;;;;;;;;;;;;;;21.74;100.00;148185.28;5093321;28;20273;-78
2022/08/05 11:25:21;;;;;;;;;;;;;;;21.76;100.00;148190.41;5094897;28;20155;-78
2022/08/05 11:27:46;;;;;;;;;;;;;;;21.84;100.00;148210.91;5094496;28;19927;-77
2022/08/05 11:30:12;;;;;;;;;;;;;;;22.62;100.00;148405.91;5093248;28;19916;-77
2022/08/05 11:32:37;;;;;;;;;;;;;;;22.56;100.00;148390.56;5093083;28;19916;-77
2022/08/05 11:35:02;;;;;;;;;;;;;;;22.55;100.00;148389.25;5092920;28;19916;-78
2022/08/05 11:37:34;;;;;;;;;;;;;;;22.61;100.00;148402.06;5092955;28;20494;-76
2022/08/05 11:39:59;;;;;;;;;;;;;;;22.37;100.00;148344.38;5093494;28;20006;-77
2022/08/05 11:42:26;;;;;;;;;;;;;;;22.04;100.00;148260.94;5093022;28;20012;-79
2022/08/05 11:44:54;;;;;;;;;;;;;;;22.00;100.00;148250.66;5092938;28;19916;-76
2022/08/05 11:47:20;;;;;;;;;;;;;;;22.37;100.00;148344.38;5093324;28;19923;-77
2022/08/05 11:49:45;;;;;;;;;;;;;;;22.78;100.00;148445.72;5092258;28;19930;-77
2022/08/05 11:52:11;;;;;;;;;;;;;;;22.47;100.00;148367.47;5093037;28;19920;-78
2022/08/05 11:54:37;;;;;;;;;;;;;;;22.64;100.00;148409.75;5093171;28;19971;-77
2022/08/05 11:57:03;;;;;;;;;;;;;;;22.49;100.00;148373.84;5091473;28;19920;-77
2022/08/05 11:59:29;;;;;;;;;;;;;;;22.38;100.00;148346.91;5093244;28;20403;-80
2022/08/05 12:01:56;;;;;;;;;;;;;;;22.28;100.00;148321.22;5092725;28;20057;-79
2022/08/05 12:04:21;;;;;;;;;;;;;;;22.12;100.00;148280.16;5092275;28;19927;-78
2022/08/05 12:06:47;;;;;;;;;;;;;;;22.33;100.00;148334.09;5076336;28;19920;-79
2022/08/05 12:09:15;;;;;;;;;;;;;;;22.23;100.00;148309.69;5093357;28;19941;-80
2022/08/05 12:11:42;;;;;;;;;;;;;;;22.39;100.00;148348.22;5092502;28;19916;-80
2022/08/05 12:14:07;;;;;;;;;;;;;;;22.22;100.00;148307.09;5093515;28;19916;-78
2022/08/05 12:16:37;;;;;;;;;;;;;;;22.32;100.00;148330.25;5094050;28;19926;-79
2022/08/05 12:19:03;;;;;;;;;;;;;;;22.53;100.00;148382.84;5092433;28;19939;-79
2022/08/05 12:21:30;;;;;;;;;;;;;;;22.44;100.00;148359.75;5094183;28;19916;-76
2022/08/05 12:24:06;;;;;;;;;;;;;;;22.11;100.00;148278.91;5091525;28;19916;-76
2022/08/05 12:26:35;;;;;;;;;;;;;;;22.07;100.00;148268.63;5091821;28;19956;-79
2022/08/05 12:29:01;;;;;;;;;;;;;;;22.22;100.00;148307.09;5092356;28;19916;-77
2022/08/05 12:31:27;;;;;;;;;;;;;;;22.14;100.00;148286.59;5091817;28;19924;-76